sensor_id;sensor_type;location;lat;lon;timestamp;pressure;altitude;pressure_sealevel;temperature;humidity
26563;BME280;14217;50.986;5.826;2024-02-26T00:01:18;99063.38;;;17.85;47.60
26563;BME280;14217;50.986;5.826;2024-02-26T00:06:21;99064.34;;;17.84;47.47
26563;BME280;14217;50.986;5.826;2024-02-26T00:11:23;99070.25;;;17.87;47.29
26563;BME280;14217;50.986;5.826;2024-02-26T00:16:25;99062.44;;;17.86;47.58
26563;BME280;14217;50.986;5.826;2024-02-26T00:21:28;99048.31;;;17.85;47.24
26563;BME280;14217;50.986;5.826;2024-02-26T00:26:30;99052.69;;;17.86;47.46
26563;BME280;14217;50.986;5.826;2024-02-26T00:31:32;99055.44;;;17.85;47.58
26563;BME280;14217;50.986;5.826;2024-02-26T00:36:34;99062.09;;;17.91;47.34
26563;BME280;14217;50.986;5.826;2024-02-26T00:41:42;99060.53;;;17.88;47.14
26563;BME280;14217;50.986;5.826;2024-02-26T00:46:44;99048.75;;;17.92;47.29
26563;BME280;14217;50.986;5.826;2024-02-26T00:51:46;99046.53;;;17.99;47.04
26563;BME280;14217;50.986;5.826;2024-02-26T00:56:48;99039.84;;;17.93;46.93
26563;BME280;14217;50.986;5.826;2024-02-26T01:01:51;99049.94;;;17.88;47.16
26563;BME280;14217;50.986;5.826;2024-02-26T01:06:53;99031.47;;;17.99;46.76
26563;BME280;14217;50.986;5.826;2024-02-26T01:11:55;99036.34;;;17.93;46.74
26563;BME280;14217;50.986;5.826;2024-02-26T01:16:57;99039.09;;;17.91;46.89
26563;BME280;14217;50.986;5.826;2024-02-26T01:21:59;99041.00;;;17.89;47.12
26563;BME280;14217;50.986;5.826;2024-02-26T01:27:02;99050.09;;;17.98;46.80
26563;BME280;14217;50.986;5.826;2024-02-26T01:32:04;99036.25;;;17.94;46.89
26563;BME280;14217;50.986;5.826;2024-02-26T01:37:07;99030.72;;;17.97;46.64
26563;BME280;14217;50.986;5.826;2024-02-26T01:42:09;99027.00;;;18.00;46.51
26563;BME280;14217;50.986;5.826;2024-02-26T01:47:12;99029.66;;;18.00;46.67
26563;BME280;14217;50.986;5.826;2024-02-26T01:52:14;99031.69;;;17.96;46.60
26563;BME280;14217;50.986;5.826;2024-02-26T01:57:17;99029.56;;;18.01;46.40
26563;BME280;14217;50.986;5.826;2024-02-26T02:02:20;99039.19;;;18.02;46.71
26563;BME280;14217;50.986;5.826;2024-02-26T02:07:22;99025.41;;;17.97;46.85
26563;BME280;14217;50.986;5.826;2024-02-26T02:12:25;99028.28;;;18.07;46.43
26563;BME280;14217;50.986;5.826;2024-02-26T02:17:27;99020.88;;;17.99;46.66
26563;BME280;14217;50.986;5.826;2024-02-26T02:22:30;99018.28;;;18.11;46.16
26563;BME280;14217;50.986;5.826;2024-02-26T02:27:34;99018.94;;;18.01;46.58
26563;BME280;14217;50.986;5.826;2024-02-26T02:32:38;99036.66;;;18.01;46.62
26563;BME280;14217;50.986;5.826;2024-02-26T02:37:41;99031.88;;;18.06;46.49
26563;BME280;14217;50.986;5.826;2024-02-26T02:42:43;99034.41;;;18.07;46.35
26563;BME280;14217;50.986;5.826;2024-02-26T02:47:45;99025.28;;;18.12;46.04
26563;BME280;14217;50.986;5.826;2024-02-26T02:52:47;99029.78;;;17.98;46.41
26563;BME280;14217;50.986;5.826;2024-02-26T02:57:51;99027.41;;;18.06;46.20
26563;BME280;14217;50.986;5.826;2024-02-26T03:02:53;99031.31;;;18.14;46.06
26563;BME280;14217;50.986;5.826;2024-02-26T03:07:55;99023.16;;;18.17;45.81
26563;BME280;14217;50.986;5.826;2024-02-26T03:12:57;99032.66;;;18.19;45.78
26563;BME280;14217;50.986;5.826;2024-02-26T03:18:00;99030.94;;;18.07;45.74
26563;BME280;14217;50.986;5.826;2024-02-26T03:23:02;99033.41;;;18.21;45.64
26563;BME280;14217;50.986;5.826;2024-02-26T03:28:05;99029.13;;;18.07;45.87
26563;BME280;14217;50.986;5.826;2024-02-26T03:33:07;99028.84;;;18.23;45.48
26563;BME280;14217;50.986;5.826;2024-02-26T03:38:09;99030.50;;;18.13;45.68
26563;BME280;14217;50.986;5.826;2024-02-26T03:43:11;99028.56;;;18.15;45.60
26563;BME280;14217;50.986;5.826;2024-02-26T03:48:14;99024.13;;;18.16;45.52
26563;BME280;14217;50.986;5.826;2024-02-26T03:53:16;99025.69;;;18.18;45.38
26563;BME280;14217;50.986;5.826;2024-02-26T03:58:18;99016.50;;;18.11;45.70
26563;BME280;14217;50.986;5.826;2024-02-26T04:03:20;99025.59;;;18.20;45.52
26563;BME280;14217;50.986;5.826;2024-02-26T04:08:23;99020.78;;;18.25;45.22
26563;BME280;14217;50.986;5.826;2024-02-26T04:13:25;99034.78;;;18.27;45.31
26563;BME280;14217;50.986;5.826;2024-02-26T04:18:27;99037.38;;;18.16;45.61
26563;BME280;14217;50.986;5.826;2024-02-26T04:23:30;99037.78;;;18.22;45.11
26563;BME280;14217;50.986;5.826;2024-02-26T04:28:32;99045.63;;;18.24;45.18
26563;BME280;14217;50.986;5.826;2024-02-26T04:33:34;99038.09;;;18.18;45.31
26563;BME280;14217;50.986;5.826;2024-02-26T04:38:37;99046.25;;;18.15;45.30
26563;BME280;14217;50.986;5.826;2024-02-26T04:43:39;99051.78;;;18.12;45.54
26563;BME280;14217;50.986;5.826;2024-02-26T04:48:43;99044.75;;;18.23;45.12
26563;BME280;14217;50.986;5.826;2024-02-26T04:53:47;99050.28;;;18.20;45.23
26563;BME280;14217;50.986;5.826;2024-02-26T04:58:49;99065.34;;;18.20;45.41
26563;BME280;14217;50.986;5.826;2024-02-26T05:03:51;99064.38;;;18.21;45.41
26563;BME280;14217;50.986;5.826;2024-02-26T05:08:54;99065.75;;;18.26;45.11
26563;BME280;14217;50.986;5.826;2024-02-26T05:13:56;99069.47;;;18.24;45.14
26563;BME280;14217;50.986;5.826;2024-02-26T05:18:58;99077.31;;;18.25;45.28
26563;BME280;14217;50.986;5.826;2024-02-26T05:24:00;99077.63;;;18.21;45.44
26563;BME280;14217;50.986;5.826;2024-02-26T05:29:02;99090.41;;;17.90;46.49
26563;BME280;14217;50.986;5.826;2024-02-26T05:34:04;99084.75;;;17.69;48.78
26563;BME280;14217;50.986;5.826;2024-02-26T05:39:12;99092.06;;;17.78;48.28
26563;BME280;14217;50.986;5.826;2024-02-26T05:44:20;99093.81;;;17.92;47.83
26563;BME280;14217;50.986;5.826;2024-02-26T05:49:22;99108.63;;;18.07;47.04
26563;BME280;14217;50.986;5.826;2024-02-26T05:54:24;99112.00;;;18.10;46.88
26563;BME280;14217;50.986;5.826;2024-02-26T05:59:26;99124.09;;;18.14;46.59
26563;BME280;14217;50.986;5.826;2024-02-26T06:04:28;99125.34;;;18.08;47.42
26563;BME280;14217;50.986;5.826;2024-02-26T06:09:31;99133.28;;;18.21;46.85
26563;BME280;14217;50.986;5.826;2024-02-26T06:14:33;99133.19;;;18.22;46.28
26563;BME280;14217;50.986;5.826;2024-02-26T06:19:35;99144.22;;;18.16;45.90
26563;BME280;14217;50.986;5.826;2024-02-26T06:24:37;99149.63;;;18.15;45.58
26563;BME280;14217;50.986;5.826;2024-02-26T06:29:40;99149.94;;;18.10;45.24
26563;BME280;14217;50.986;5.826;2024-02-26T06:34:42;99157.81;;;18.12;45.00
26563;BME280;14217;50.986;5.826;2024-02-26T06:39:45;99169.25;;;18.12;44.95
26563;BME280;14217;50.986;5.826;2024-02-26T06:44:47;99172.41;;;18.04;44.66
26563;BME280;14217;50.986;5.826;2024-02-26T06:49:49;99184.63;;;18.07;44.61
26563;BME280;14217;50.986;5.826;2024-02-26T06:54:51;99194.06;;;18.11;44.17
26563;BME280;14217;50.986;5.826;2024-02-26T06:59:54;99186.41;;;18.06;44.43
26563;BME280;14217;50.986;5.826;2024-02-26T07:04:56;99190.34;;;18.01;44.27
26563;BME280;14217;50.986;5.826;2024-02-26T07:10:00;99192.78;;;18.04;44.45
26563;BME280;14217;50.986;5.826;2024-02-26T07:15:05;99212.16;;;18.04;44.21
26563;BME280;14217;50.986;5.826;2024-02-26T07:20:10;99217.47;;;18.04;43.98
26563;BME280;14217;50.986;5.826;2024-02-26T07:25:12;99222.66;;;18.06;44.03
26563;BME280;14217;50.986;5.826;2024-02-26T07:30:15;99228.94;;;18.05;43.88
26563;BME280;14217;50.986;5.826;2024-02-26T07:35:18;99232.44;;;18.05;43.82
26563;BME280;14217;50.986;5.826;2024-02-26T07:40:20;99241.22;;;18.06;43.62
26563;BME280;14217;50.986;5.826;2024-02-26T07:45:22;99246.63;;;18.04;43.86
26563;BME280;14217;50.986;5.826;2024-02-26T07:50:25;99246.84;;;18.01;43.59
26563;BME280;14217;50.986;5.826;2024-02-26T07:55:27;99247.06;;;17.98;43.59
26563;BME280;14217;50.986;5.826;2024-02-26T08:00:29;99259.56;;;17.96;43.89
26563;BME280;14217;50.986;5.826;2024-02-26T08:05:31;99257.44;;;18.01;43.72
26563;BME280;14217;50.986;5.826;2024-02-26T08:10:33;99275.25;;;17.99;43.77
26563;BME280;14217;50.986;5.826;2024-02-26T08:15:35;99283.50;;;17.95;43.90
26563;BME280;14217;50.986;5.826;2024-02-26T08:20:41;99286.59;;;18.01;43.86
26563;BME280;14217;50.986;5.826;2024-02-26T08:25:43;99287.88;;;18.08;43.85
26563;BME280;14217;50.986;5.826;2024-02-26T08:30:45;99290.31;;;17.99;44.53
26563;BME280;14217;50.986;5.826;2024-02-26T08:35:47;99302.19;;;18.06;44.28
26563;BME280;14217;50.986;5.826;2024-02-26T08:40:49;99304.31;;;18.01;44.48
26563;BME280;14217;50.986;5.826;2024-02-26T08:45:51;99312.03;;;18.04;44.70
26563;BME280;14217;50.986;5.826;2024-02-26T08:50:53;99303.03;;;18.06;44.67
26563;BME280;14217;50.986;5.826;2024-02-26T08:55:55;99313.84;;;18.03;44.77
26563;BME280;14217;50.986;5.826;2024-02-26T09:00:57;99322.84;;;18.01;45.68
26563;BME280;14217;50.986;5.826;2024-02-26T09:05:59;99323.38;;;18.06;45.36
26563;BME280;14217;50.986;5.826;2024-02-26T09:11:02;99341.00;;;18.07;44.97
26563;BME280;14217;50.986;5.826;2024-02-26T09:16:05;99341.22;;;17.90;45.03
26563;BME280;14217;50.986;5.826;2024-02-26T09:21:08;99350.84;;;18.05;44.60
26563;BME280;14217;50.986;5.826;2024-02-26T09:26:10;99358.59;;;18.08;44.51
26563;BME280;14217;50.986;5.826;2024-02-26T09:31:12;99372.50;;;18.12;44.35
26563;BME280;14217;50.986;5.826;2024-02-26T09:36:14;99374.16;;;18.13;44.32
26563;BME280;14217;50.986;5.826;2024-02-26T09:41:16;99382.53;;;18.06;44.51
26563;BME280;14217;50.986;5.826;2024-02-26T09:46:19;99382.34;;;18.10;44.26
26563;BME280;14217;50.986;5.826;2024-02-26T09:51:25;99398.25;;;18.10;44.38
26563;BME280;14217;50.986;5.826;2024-02-26T09:56:28;99393.78;;;18.10;44.07
26563;BME280;14217;50.986;5.826;2024-02-26T10:01:32;99410.75;;;18.07;44.26
26563;BME280;14217;50.986;5.826;2024-02-26T10:06:36;99411.41;;;18.11;44.27
26563;BME280;14217;50.986;5.826;2024-02-26T10:11:40;99431.19;;;18.05;44.28
26563;BME280;14217;50.986;5.826;2024-02-26T10:16:45;99432.69;;;18.10;44.15
26563;BME280;14217;50.986;5.826;2024-02-26T10:21:47;99446.03;;;18.08;44.00
26563;BME280;14217;50.986;5.826;2024-02-26T10:26:49;99443.41;;;18.08;44.20
26563;BME280;14217;50.986;5.826;2024-02-26T10:31:52;99454.84;;;18.08;44.08
26563;BME280;14217;50.986;5.826;2024-02-26T10:36:54;99446.88;;;18.08;43.90
26563;BME280;14217;50.986;5.826;2024-02-26T10:41:56;99459.13;;;18.11;43.97
26563;BME280;14217;50.986;5.826;2024-02-26T10:46:58;99467.91;;;18.12;44.05
26563;BME280;14217;50.986;5.826;2024-02-26T10:52:01;99473.31;;;18.10;43.99
26563;BME280;14217;50.986;5.826;2024-02-26T10:57:05;99486.84;;;18.05;44.00
26563;BME280;14217;50.986;5.826;2024-02-26T11:02:08;99488.53;;;18.06;43.96
26563;BME280;14217;50.986;5.826;2024-02-26T11:07:12;99496.50;;;18.06;44.01
26563;BME280;14217;50.986;5.826;2024-02-26T11:12:15;99503.59;;;18.06;44.03
26563;BME280;14217;50.986;5.826;2024-02-26T11:17:19;99515.03;;;18.06;44.01
26563;BME280;14217;50.986;5.826;2024-02-26T11:22:21;99516.75;;;18.07;43.79
26563;BME280;14217;50.986;5.826;2024-02-26T11:27:38;99531.16;;;18.03;43.93
26563;BME280;14217;50.986;5.826;2024-02-26T11:32:47;99539.88;;;18.05;43.83
26563;BME280;14217;50.986;5.826;2024-02-26T11:37:56;99540.91;;;18.03;43.87
26563;BME280;14217;50.986;5.826;2024-02-26T11:42:59;99542.41;;;18.07;43.76
26563;BME280;14217;50.986;5.826;2024-02-26T11:48:02;99545.91;;;18.07;43.64
26563;BME280;14217;50.986;5.826;2024-02-26T11:58:22;99549.50;;;18.06;43.66
26563;BME280;14217;50.986;5.826;2024-02-26T12:03:24;99554.25;;;18.01;43.93
26563;BME280;14217;50.986;5.826;2024-02-26T12:08:27;99569.00;;;18.05;43.83
26563;BME280;14217;50.986;5.826;2024-02-26T12:13:30;99580.53;;;18.04;43.64
26563;BME280;14217;50.986;5.826;2024-02-26T12:18:32;99581.50;;;18.03;43.57
26563;BME280;14217;50.986;5.826;2024-02-26T12:23:36;99582.34;;;18.04;43.52
26563;BME280;14217;50.986;5.826;2024-02-26T12:28:38;99592.88;;;18.05;43.74
26563;BME280;14217;50.986;5.826;2024-02-26T12:33:43;99597.31;;;18.05;43.60
26563;BME280;14217;50.986;5.826;2024-02-26T12:38:45;99605.91;;;18.08;43.58
26563;BME280;14217;50.986;5.826;2024-02-26T12:43:47;99617.84;;;18.01;43.75
26563;BME280;14217;50.986;5.826;2024-02-26T12:48:51;99613.31;;;18.03;43.43
26563;BME280;14217;50.986;5.826;2024-02-26T12:53:54;99633.00;;;17.99;43.61
26563;BME280;14217;50.986;5.826;2024-02-26T12:58:58;99644.38;;;18.01;43.71
26563;BME280;14217;50.986;5.826;2024-02-26T13:04:01;99649.47;;;18.04;43.30
26563;BME280;14217;50.986;5.826;2024-02-26T13:09:15;99661.19;;;18.00;43.31
26563;BME280;14217;50.986;5.826;2024-02-26T13:14:20;99672.75;;;17.99;43.49
26563;BME280;14217;50.986;5.826;2024-02-26T13:19:22;99675.31;;;18.01;43.50
26563;BME280;14217;50.986;5.826;2024-02-26T13:24:24;99688.44;;;18.02;43.51
26563;BME280;14217;50.986;5.826;2024-02-26T13:29:27;99691.38;;;17.98;43.64
26563;BME280;14217;50.986;5.826;2024-02-26T13:34:29;99700.94;;;18.00;43.32
26563;BME280;14217;50.986;5.826;2024-02-26T13:39:33;99700.22;;;17.98;43.25
26563;BME280;14217;50.986;5.826;2024-02-26T13:44:37;99703.72;;;17.99;43.46
26563;BME280;14217;50.986;5.826;2024-02-26T13:49:41;99712.44;;;18.01;43.30
26563;BME280;14217;50.986;5.826;2024-02-26T13:54:43;99718.94;;;17.95;43.40
26563;BME280;14217;50.986;5.826;2024-02-26T13:59:46;99722.34;;;17.97;43.53
26563;BME280;14217;50.986;5.826;2024-02-26T14:04:48;99731.25;;;17.96;43.24
26563;BME280;14217;50.986;5.826;2024-02-26T14:09:50;99732.88;;;17.99;43.30
26563;BME280;14217;50.986;5.826;2024-02-26T14:14:53;99731.34;;;17.95;43.12
26563;BME280;14217;50.986;5.826;2024-02-26T14:19:57;99741.34;;;17.90;43.35
26563;BME280;14217;50.986;5.826;2024-02-26T14:24:59;99746.31;;;17.80;43.82
26563;BME280;14217;50.986;5.826;2024-02-26T14:30:02;99754.59;;;17.90;43.62
26563;BME280;14217;50.986;5.826;2024-02-26T14:35:06;99763.06;;;17.96;43.37
26563;BME280;14217;50.986;5.826;2024-02-26T14:40:12;99767.59;;;17.94;43.10
26563;BME280;14217;50.986;5.826;2024-02-26T14:45:15;99788.28;;;17.87;43.55
26563;BME280;14217;50.986;5.826;2024-02-26T14:50:18;99788.56;;;17.83;43.30
26563;BME280;14217;50.986;5.826;2024-02-26T14:55:20;99807.94;;;17.83;43.50
26563;BME280;14217;50.986;5.826;2024-02-26T15:00:22;99803.31;;;17.87;43.26
26563;BME280;14217;50.986;5.826;2024-02-26T15:05:25;99812.88;;;17.90;43.34
26563;BME280;14217;50.986;5.826;2024-02-26T15:10:26;99818.09;;;17.91;43.10
26563;BME280;14217;50.986;5.826;2024-02-26T15:15:30;99829.66;;;17.90;43.03
26563;BME280;14217;50.986;5.826;2024-02-26T15:20:32;99842.81;;;17.92;43.12
26563;BME280;14217;50.986;5.826;2024-02-26T15:25:34;99847.34;;;17.90;42.98
26563;BME280;14217;50.986;5.826;2024-02-26T15:30:37;99859.94;;;17.86;43.34
26563;BME280;14217;50.986;5.826;2024-02-26T15:35:40;99865.81;;;17.91;43.33
26563;BME280;14217;50.986;5.826;2024-02-26T15:40:44;99877.09;;;17.95;43.24
26563;BME280;14217;50.986;5.826;2024-02-26T15:45:48;99886.50;;;17.84;43.43
26563;BME280;14217;50.986;5.826;2024-02-26T15:50:50;99891.44;;;17.43;44.51
26563;BME280;14217;50.986;5.826;2024-02-26T15:55:52;99898.22;;;17.15;45.26
26563;BME280;14217;50.986;5.826;2024-02-26T16:00:54;99909.97;;;17.27;44.87
26563;BME280;14217;50.986;5.826;2024-02-26T16:06:02;99919.06;;;17.21;45.16
26563;BME280;14217;50.986;5.826;2024-02-26T16:11:04;99927.00;;;17.21;45.69
26563;BME280;14217;50.986;5.826;2024-02-26T16:16:12;99926.41;;;17.16;45.65
26563;BME280;14217;50.986;5.826;2024-02-26T16:21:15;99946.97;;;17.11;45.80
26563;BME280;14217;50.986;5.826;2024-02-26T16:26:18;99949.94;;;17.05;45.90
26563;BME280;14217;50.986;5.826;2024-02-26T16:31:19;99962.00;;;17.11;45.84
26563;BME280;14217;50.986;5.826;2024-02-26T16:36:22;99973.94;;;17.35;45.52
26563;BME280;14217;50.986;5.826;2024-02-26T16:41:24;99979.31;;;17.34;45.44
26563;BME280;14217;50.986;5.826;2024-02-26T16:46:26;99996.69;;;17.39;45.08
26563;BME280;14217;50.986;5.826;2024-02-26T16:51:28;100014.44;;;17.37;45.29
26563;BME280;14217;50.986;5.826;2024-02-26T16:56:30;100019.41;;;17.43;44.98
26563;BME280;14217;50.986;5.826;2024-02-26T17:01:32;100028.97;;;17.46;45.37
26563;BME280;14217;50.986;5.826;2024-02-26T17:06:34;100030.84;;;17.44;45.45
26563;BME280;14217;50.986;5.826;2024-02-26T17:11:36;100040.50;;;17.45;45.30
26563;BME280;14217;50.986;5.826;2024-02-26T17:16:40;100062.78;;;17.41;45.48
26563;BME280;14217;50.986;5.826;2024-02-26T17:21:42;100064.00;;;17.51;45.44
26563;BME280;14217;50.986;5.826;2024-02-26T17:26:44;100077.00;;;17.56;45.12
26563;BME280;14217;50.986;5.826;2024-02-26T17:31:46;100089.66;;;17.51;45.33
26563;BME280;14217;50.986;5.826;2024-02-26T17:36:49;100114.50;;;17.48;45.19
26563;BME280;14217;50.986;5.826;2024-02-26T17:41:52;100119.81;;;17.48;45.08
26563;BME280;14217;50.986;5.826;2024-02-26T17:46:54;100118.53;;;17.55;44.99
26563;BME280;14217;50.986;5.826;2024-02-26T17:51:56;100127.19;;;17.59;44.73
26563;BME280;14217;50.986;5.826;2024-02-26T17:56:58;100146.13;;;17.51;45.02
26563;BME280;14217;50.986;5.826;2024-02-26T18:02:01;100159.22;;;17.54;44.86
26563;BME280;14217;50.986;5.826;2024-02-26T18:07:03;100161.78;;;17.56;44.71
26563;BME280;14217;50.986;5.826;2024-02-26T18:12:06;100181.25;;;17.55;44.89
26563;BME280;14217;50.986;5.826;2024-02-26T18:17:08;100183.97;;;17.53;44.91
26563;BME280;14217;50.986;5.826;2024-02-26T18:22:11;100198.47;;;17.46;45.10
26563;BME280;14217;50.986;5.826;2024-02-26T18:27:13;100207.88;;;17.52;44.93
26563;BME280;14217;50.986;5.826;2024-02-26T18:32:15;100219.66;;;17.46;44.89
26563;BME280;14217;50.986;5.826;2024-02-26T18:37:19;100222.78;;;17.54;44.72
26563;BME280;14217;50.986;5.826;2024-02-26T18:42:22;100237.97;;;17.51;44.69
26563;BME280;14217;50.986;5.826;2024-02-26T18:47:24;100245.91;;;17.51;45.03
26563;BME280;14217;50.986;5.826;2024-02-26T18:52:26;100254.00;;;17.47;45.14
26563;BME280;14217;50.986;5.826;2024-02-26T18:57:28;100261.03;;;17.48;45.12
26563;BME280;14217;50.986;5.826;2024-02-26T19:02:34;100274.31;;;17.47;47.23
26563;BME280;14217;50.986;5.826;2024-02-26T19:07:36;100286.78;;;17.45;46.70
26563;BME280;14217;50.986;5.826;2024-02-26T19:12:38;100289.59;;;17.42;46.25
26563;BME280;14217;50.986;5.826;2024-02-26T19:17:41;100288.66;;;17.43;46.52
26563;BME280;14217;50.986;5.826;2024-02-26T19:22:43;100300.19;;;17.42;46.18
26563;BME280;14217;50.986;5.826;2024-02-26T19:27:45;100311.56;;;17.44;46.17
26563;BME280;14217;50.986;5.826;2024-02-26T19:32:47;100323.00;;;17.44;46.26
26563;BME280;14217;50.986;5.826;2024-02-26T19:37:49;100338.06;;;17.44;46.21
26563;BME280;14217;50.986;5.826;2024-02-26T19:42:51;100335.69;;;17.38;46.10
26563;BME280;14217;50.986;5.826;2024-02-26T19:47:53;100346.22;;;17.39;46.31
26563;BME280;14217;50.986;5.826;2024-02-26T19:52:55;100354.78;;;17.44;46.12
26563;BME280;14217;50.986;5.826;2024-02-26T19:57:59;100358.41;;;17.43;46.18
26563;BME280;14217;50.986;5.826;2024-02-26T20:03:02;100366.53;;;17.39;46.19
26563;BME280;14217;50.986;5.826;2024-02-26T20:08:05;100371.91;;;17.37;46.15
26563;BME280;14217;50.986;5.826;2024-02-26T20:13:07;100379.72;;;17.40;46.37
26563;BME280;14217;50.986;5.826;2024-02-26T20:18:10;100395.53;;;17.42;46.10
26563;BME280;14217;50.986;5.826;2024-02-26T20:23:12;100405.19;;;17.43;46.33
26563;BME280;14217;50.986;5.826;2024-02-26T20:28:14;100408.84;;;17.40;45.99
26563;BME280;14217;50.986;5.826;2024-02-26T20:33:16;100423.81;;;17.41;46.11
26563;BME280;14217;50.986;5.826;2024-02-26T20:38:19;100427.38;;;17.40;46.16
26563;BME280;14217;50.986;5.826;2024-02-26T20:43:20;100440.78;;;17.37;46.36
26563;BME280;14217;50.986;5.826;2024-02-26T20:48:23;100456.38;;;17.43;46.28
26563;BME280;14217;50.986;5.826;2024-02-26T20:53:26;100463.88;;;17.34;46.54
26563;BME280;14217;50.986;5.826;2024-02-26T20:58:28;100476.00;;;17.39;46.22
26563;BME280;14217;50.986;5.826;2024-02-26T21:03:30;100477.75;;;17.39;46.22
26563;BME280;14217;50.986;5.826;2024-02-26T21:08:32;100490.16;;;17.38;46.36
26563;BME280;14217;50.986;5.826;2024-02-26T21:13:39;100498.03;;;17.40;46.29
26563;BME280;14217;50.986;5.826;2024-02-26T21:18:42;100504.25;;;17.39;46.61
26563;BME280;14217;50.986;5.826;2024-02-26T21:23:45;100509.41;;;17.42;46.33
26563;BME280;14217;50.986;5.826;2024-02-26T21:28:47;100522.88;;;17.37;46.42
26563;BME280;14217;50.986;5.826;2024-02-26T21:33:49;100530.69;;;17.59;50.93
26563;BME280;14217;50.986;5.826;2024-02-26T21:38:51;100537.91;;;17.56;50.19
26563;BME280;14217;50.986;5.826;2024-02-26T21:43:53;100556.53;;;17.54;49.90
26563;BME280;14217;50.986;5.826;2024-02-26T21:48:55;100560.00;;;17.15;50.78
26563;BME280;14217;50.986;5.826;2024-02-26T21:53:58;100574.88;;;17.18;50.35
26563;BME280;14217;50.986;5.826;2024-02-26T21:59:00;100576.63;;;17.39;49.79
26563;BME280;14217;50.986;5.826;2024-02-26T22:04:02;100579.72;;;17.49;49.27
26563;BME280;14217;50.986;5.826;2024-02-26T22:09:05;100592.31;;;17.44;49.09
26563;BME280;14217;50.986;5.826;2024-02-26T22:14:10;100595.66;;;17.47;48.73
26563;BME280;14217;50.986;5.826;2024-02-26T22:19:12;100603.69;;;17.46;48.51
26563;BME280;14217;50.986;5.826;2024-02-26T22:24:16;100616.06;;;17.45;48.48
26563;BME280;14217;50.986;5.826;2024-02-26T22:29:18;100612.56;;;17.45;48.19
26563;BME280;14217;50.986;5.826;2024-02-26T22:34:20;100614.09;;;17.51;47.90
26563;BME280;14217;50.986;5.826;2024-02-26T22:39:22;100616.00;;;17.47;48.03
26563;BME280;14217;50.986;5.826;2024-02-26T22:44:25;100627.53;;;17.46;47.79
26563;BME280;14217;50.986;5.826;2024-02-26T22:49:27;100633.94;;;17.40;48.01
26563;BME280;14217;50.986;5.826;2024-02-26T22:54:30;100639.13;;;17.43;47.70
26563;BME280;14217;50.986;5.826;2024-02-26T22:59:34;100638.25;;;17.43;47.58
26563;BME280;14217;50.986;5.826;2024-02-26T23:04:36;100640.91;;;17.43;47.55
26563;BME280;14217;50.986;5.826;2024-02-26T23:09:39;100645.41;;;17.41;47.67
26563;BME280;14217;50.986;5.826;2024-02-26T23:14:41;100650.59;;;17.44;47.57
26563;BME280;14217;50.986;5.826;2024-02-26T23:19:43;100663.69;;;17.47;47.43
26563;BME280;14217;50.986;5.826;2024-02-26T23:24:45;100671.88;;;17.41;47.21
26563;BME280;14217;50.986;5.826;2024-02-26T23:29:47;100667.53;;;17.40;47.34
26563;BME280;14217;50.986;5.826;2024-02-26T23:34:50;100665.78;;;17.39;47.46
26563;BME280;14217;50.986;5.826;2024-02-26T23:39:52;100671.88;;;17.41;47.32
26563;BME280;14217;50.986;5.826;2024-02-26T23:44:54;100675.31;;;17.43;47.21
26563;BME280;14217;50.986;5.826;2024-02-26T23:49:56;100680.72;;;17.41;47.25
26563;BME280;14217;50.986;5.826;2024-02-26T23:54:59;100677.97;;;17.43;47.18
